Pagrindinis puslapis
METAR-TAF:

METAR-TAF

Oro uostai :

Džajapura, Indonezija

platuma: 02-34-37S, ilguma: 140-30-58E, Aukštis: 88 m

Dabartinis oras

Ataskaita buvo paskelbta 42 minutes, ne 04:00 UTC
Vėjas 20 kt iš Vakarų
Temperatūra 30°C
Drėgmė 62%
Slėgis 1006 hPa
Matomumas 10 km arba daugiau
Mažai debesys ne aukštis 1300 ft

METAR: WAJJ 020400Z 28020KT 9999 FEW013 30/22 Q1006 NOSIG

Laikas: 11:42 (04:42 UTC)


TAF: trūkstamas

Orai ataskaitas ir orų prognozės (METAR, TAF).

turimą stotys yra geltonos ir raudonos taškus žemėlapyje.

Perkelti pele per norėdami pamatyti stoties vardą.

Tada spustelėkite, norėdami matyti oro stebėjimo ir prognozės.

Norėdami pakeisti žemėlapį: spustelėkite ant žalios mygtukų su juodo kryžiaus žemyn,; žalią mygtuką su brūkšneliu, jei norite nutolinti; arba žalių rodyklių gretimoms žemėlapius.


METAR-TAF: